Time;durP1;ratioP1;P1;durP2;ratioP2;P2;SDS_P1;SDS_P2;PMS_P1;PMS_P2;Temp;Humidity;BMP_temperature;BMP_pressure;BME280_temperature;BME280_humidity;BME280_pressure;Samples;Min_cycle;Max_cycle;Signal;HPM_P1;HPM_P2
2022/11/08 00:04:37;;;;;;;42.92;19.65;;;;;;;;;;10311407;23;20024;-85
2022/11/08 00:17:26;;;;;;;33.35;16.85;;;;;;;;;;10311615;23;20054;-85
2022/11/08 00:21:31;;;;;;;30.30;15.27;;;;;;;;;;10310892;23;20038;-85
2022/11/08 00:25:36;;;;;;;29.70;16.23;;;;;;;;;;10337339;23;20020;-85
2022/11/08 00:29:40;;;;;;;33.03;16.17;;;;;;;;;;10336957;23;20024;-86
2022/11/08 00:33:48;;;;;;;28.17;15.25;;;;;;;;;;10310232;23;20048;-85
2022/11/08 00:37:51;;;;;;;26.60;14.48;;;;;;;;;;10310756;23;20026;-87
2022/11/08 00:41:54;;;;;;;26.23;15.32;;;;;;;;;;10309904;23;20024;-86
2022/11/08 00:46:00;;;;;;;27.95;14.48;;;;;;;;;;10310031;23;20024;-85
2022/11/08 00:50:05;;;;;;;30.33;14.75;;;;;;;;;;10310823;23;20024;-85
2022/11/08 01:37:13;;;;;;;27.38;13.60;;;;;;;;;;10178983;23;20487;-85
2022/11/08 01:41:19;;;;;;;28.60;13.55;;;;;;;;;;10361533;23;20020;-85
2022/11/08 01:46:10;;;;;;;24.80;12.93;;;;;;;;;;10391578;23;20020;-86
2022/11/08 01:50:15;;;;;;;24.13;13.03;;;;;;;;;;10211343;23;20459;-85
2022/11/08 01:54:23;;;;;;;23.20;13.13;;;;;;;;;;10351353;23;20352;-85
2022/11/08 01:58:30;;;;;;;26.17;13.25;;;;;;;;;;10356613;23;20020;-85
2022/11/08 02:02:34;;;;;;;25.02;13.07;;;;;;;;;;10323822;23;20085;-85
2022/11/08 02:06:41;;;;;;;23.00;12.57;;;;;;;;;;10314850;23;20024;-85
2022/11/08 02:10:48;;;;;;;27.10;12.48;;;;;;;;;;10314215;23;20031;-85
2022/11/08 02:14:53;;;;;;;26.25;13.27;;;;;;;;;;10314155;23;20098;-85
2022/11/08 02:18:58;;;;;;;26.60;13.38;;;;;;;;;;10313827;23;20047;-85
2022/11/08 02:23:12;;;;;;;24.55;13.30;;;;;;;;;;10313567;23;20024;-85
2022/11/08 02:27:18;;;;;;;30.30;14.98;;;;;;;;;;10313061;23;20032;-85
2022/11/08 02:31:22;;;;;;;34.38;15.68;;;;;;;;;;10312785;23;20024;-85
2022/11/08 02:35:29;;;;;;;27.23;14.95;;;;;;;;;;10339566;23;20518;-87
2022/11/08 02:39:33;;;;;;;26.00;14.18;;;;;;;;;;10313151;23;20114;-87
2022/11/08 02:43:39;;;;;;;26.95;14.27;;;;;;;;;;10312535;23;20119;-86
2022/11/08 02:47:45;;;;;;;21.52;13.40;;;;;;;;;;10312440;23;20020;-85
2022/11/08 02:51:47;;;;;;;26.98;15.60;;;;;;;;;;10313237;23;20036;-85
2022/11/08 02:55:51;;;;;;;28.73;15.18;;;;;;;;;;10312648;23;20093;-88
2022/11/08 02:59:59;;;;;;;34.60;15.63;;;;;;;;;;10312570;23;20020;-86
2022/11/08 03:04:04;;;;;;;28.33;14.77;;;;;;;;;;10312351;23;20027;-85
2022/11/08 03:08:09;;;;;;;35.88;17.08;;;;;;;;;;10312616;23;20171;-87
2022/11/08 03:12:13;;;;;;;29.30;16.58;;;;;;;;;;10312756;23;20028;-86
2022/11/08 03:16:16;;;;;;;31.40;15.20;;;;;;;;;;10337344;23;20043;-86
2022/11/08 03:20:20;;;;;;;38.30;17.17;;;;;;;;;;10338995;23;20016;-87
2022/11/08 03:24:26;;;;;;;35.63;17.25;;;;;;;;;;10312025;23;20445;-84
2022/11/08 03:28:29;;;;;;;33.25;16.05;;;;;;;;;;10337682;23;20372;-85
2022/11/08 03:32:38;;;;;;;42.55;21.40;;;;;;;;;;10312265;23;20020;-85
2022/11/08 03:36:43;;;;;;;40.25;20.33;;;;;;;;;;10311755;23;20352;-85
2022/11/08 03:44:56;;;;;;;41.33;21.73;;;;;;;;;;10320658;22;20055;-85
2022/11/08 03:49:01;;;;;;;41.88;25.67;;;;;;;;;;10287130;23;20553;-85
2022/11/08 03:53:06;;;;;;;54.90;27.63;;;;;;;;;;10286899;23;20031;-85
2022/11/08 03:57:10;;;;;;;43.70;21.60;;;;;;;;;;10286802;23;20031;-85
2022/11/08 04:01:12;;;;;;;56.80;30.38;;;;;;;;;;10286809;23;20025;-86
2022/11/08 04:05:20;;;;;;;41.28;21.30;;;;;;;;;;10286803;23;20028;-85
2022/11/08 04:09:25;;;;;;;40.45;20.95;;;;;;;;;;10286487;23;20029;-86
2022/11/08 04:22:16;;;;;;;43.08;20.27;;;;;;;;;;10287201;23;20016;-85
2022/11/08 04:26:20;;;;;;;39.13;20.58;;;;;;;;;;10286056;23;20071;-86
2022/11/08 04:30:25;;;;;;;47.65;30.38;;;;;;;;;;10286105;23;20024;-86
2022/11/08 04:34:28;;;;;;;48.65;27.05;;;;;;;;;;10286282;23;20020;-85
2022/11/08 04:38:38;;;;;;;47.90;28.52;;;;;;;;;;10286433;23;20070;-85
2022/11/08 04:42:44;;;;;;;44.05;23.25;;;;;;;;;;10286178;23;20024;-88
2022/11/08 04:46:49;;;;;;;39.13;20.98;;;;;;;;;;10284596;23;20028;-85
2022/11/08 04:50:52;;;;;;;42.13;22.58;;;;;;;;;;10286149;22;20047;-85
2022/11/08 05:11:31;;;;;;;36.03;18.88;;;;;;;;;;10285553;23;20518;-85
2022/11/08 05:16:19;;;;;;;34.53;19.65;;;;;;;;;;10224752;23;20536;-85
2022/11/08 05:24:44;;;;;;;50.55;29.48;;;;;;;;;;10259916;23;20021;-88
2022/11/08 05:28:47;;;;;;;66.05;39.78;;;;;;;;;;10259345;23;20179;-87
2022/11/08 05:32:55;;;;;;;58.47;33.70;;;;;;;;;;10260389;23;20025;-85
2022/11/08 05:37:02;;;;;;;53.75;30.73;;;;;;;;;;10259916;23;20079;-87
2022/11/08 05:41:14;;;;;;;61.55;34.30;;;;;;;;;;10259547;23;20029;-86
2022/11/08 05:45:20;;;;;;;49.38;23.63;;;;;;;;;;10259807;23;20028;-86
2022/11/08 05:49:28;;;;;;;49.80;23.42;;;;;;;;;;10260367;23;20453;-86
2022/11/08 05:53:34;;;;;;;42.90;22.80;;;;;;;;;;10255450;23;20108;-85
2022/11/08 05:57:37;;;;;;;71.00;21.70;;;;;;;;;;10257057;23;20025;-84
2022/11/08 06:01:40;;;;;;;45.72;22.02;;;;;;;;;;10284163;23;20099;-84
2022/11/08 06:05:46;;;;;;;56.00;25.30;;;;;;;;;;10286159;23;20028;-89
2022/11/08 06:09:49;;;;;;;62.72;31.55;;;;;;;;;;10259731;23;20032;-85
2022/11/08 06:13:53;;;;;;;65.55;30.15;;;;;;;;;;10260469;23;20115;-84
2022/11/08 06:17:56;;;;;;;59.60;26.85;;;;;;;;;;10260101;23;20369;-84
2022/11/08 06:22:02;;;;;;;54.40;24.58;;;;;;;;;;10260282;23;20020;-85
2022/11/08 06:26:06;;;;;;;58.22;30.38;;;;;;;;;;10262756;23;20029;-86
2022/11/08 06:30:10;;;;;;;52.13;22.73;;;;;;;;;;10263351;23;20100;-85
2022/11/08 06:34:13;;;;;;;52.47;22.27;;;;;;;;;;10262883;23;20024;-86
2022/11/08 06:38:21;;;;;;;59.78;23.02;;;;;;;;;;10262848;23;20017;-84
2022/11/08 06:42:24;;;;;;;46.72;21.83;;;;;;;;;;10263050;23;20042;-84
2022/11/08 06:46:27;;;;;;;43.40;19.00;;;;;;;;;;10261616;23;20345;-87
2022/11/08 06:50:32;;;;;;;54.83;22.02;;;;;;;;;;10261859;23;20464;-88
2022/11/08 06:54:40;;;;;;;50.83;21.13;;;;;;;;;;10261744;23;20322;-85
2022/11/08 06:58:46;;;;;;;43.03;19.60;;;;;;;;;;10260585;23;20024;-85
2022/11/08 07:02:55;;;;;;;42.80;21.30;;;;;;;;;;10260863;23;20075;-86
2022/11/08 07:07:00;;;;;;;43.53;20.27;;;;;;;;;;10261322;23;20458;-87
2022/11/08 07:11:09;;;;;;;30.38;17.98;;;;;;;;;;10260653;23;20047;-86
2022/11/08 07:15:12;;;;;;;33.22;16.30;;;;;;;;;;10262248;23;20099;-87
2022/11/08 07:19:14;;;;;;;30.83;15.15;;;;;;;;;;10288941;23;20334;-85
2022/11/08 07:23:22;;;;;;;35.92;16.02;;;;;;;;;;10262177;23;20035;-84
2022/11/08 07:27:31;;;;;;;28.65;14.52;;;;;;;;;;10261227;23;20030;-85
2022/11/08 07:31:36;;;;;;;24.00;13.07;;;;;;;;;;10262051;23;20021;-84
2022/11/08 07:35:39;;;;;;;27.17;13.02;;;;;;;;;;10261877;23;20025;-85
2022/11/08 07:39:45;;;;;;;26.48;12.70;;;;;;;;;;10262180;23;20070;-86
2022/11/08 07:43:51;;;;;;;23.65;11.25;;;;;;;;;;10262297;23;20480;-86
2022/11/08 07:48:01;;;;;;;17.15;9.63;;;;;;;;;;10262039;23;20353;-85
2022/11/08 07:52:06;;;;;;;19.15;10.32;;;;;;;;;;10262105;23;20063;-86
2022/11/08 07:56:11;;;;;;;16.38;9.18;;;;;;;;;;10261486;23;20021;-88
2022/11/08 08:00:16;;;;;;;15.05;8.77;;;;;;;;;;10261514;23;20046;-87
2022/11/08 08:04:25;;;;;;;15.68;9.00;;;;;;;;;;10261335;23;20273;-86
2022/11/08 08:08:28;;;;;;;18.00;9.65;;;;;;;;;;10260932;23;20028;-85
2022/11/08 08:12:32;;;;;;;16.67;9.77;;;;;;;;;;10261486;23;20167;-86
2022/11/08 08:16:40;;;;;;;15.50;8.68;;;;;;;;;;10261616;23;20103;-85
2022/11/08 08:20:46;;;;;;;14.40;8.80;;;;;;;;;;10261304;23;20020;-87
2022/11/08 08:24:48;;;;;;;16.92;8.80;;;;;;;;;;10261158;23;20449;-86
2022/11/08 08:28:52;;;;;;;14.35;8.52;;;;;;;;;;10261092;23;20356;-87
2022/11/08 08:33:07;;;;;;;14.90;7.22;;;;;;;;;;10257728;23;20400;-89
2022/11/08 08:37:14;;;;;;;12.10;7.82;;;;;;;;;;10254985;23;20028;-87
2022/11/08 08:41:18;;;;;;;12.60;7.88;;;;;;;;;;10281245;23;20024;-87
2022/11/08 08:45:22;;;;;;;11.32;7.47;;;;;;;;;;10255028;23;20444;-87
2022/11/08 08:49:30;;;;;;;11.20;7.40;;;;;;;;;;10281053;23;20119;-87
2022/11/08 08:53:39;;;;;;;13.10;7.28;;;;;;;;;;10254754;23;20024;-88
2022/11/08 10:19:34;;;;;;;10.15;4.25;;;;;;;;;;10333474;22;20034;-87
2022/11/08 10:44:19;;;;;;;6.53;3.45;;;;;;;;;;10326922;22;20031;-87
2022/11/08 10:48:22;;;;;;;6.28;3.53;;;;;;;;;;10328885;23;20028;-86
2022/11/08 10:58:51;;;;;;;9.48;3.67;;;;;;;;;;10283959;23;20063;-87
2022/11/08 11:32:44;;;;;;;8.88;3.85;;;;;;;;;;10332709;23;20043;-87
2022/11/08 11:58:17;;;;;;;12.52;4.97;;;;;;;;;;10333617;23;20119;-87
2022/11/08 12:02:41;;;;;;;8.00;4.53;;;;;;;;;;10349571;23;20024;-87
2022/11/08 12:12:40;;;;;;;8.75;4.68;;;;;;;;;;10354315;23;20040;-87
2022/11/08 12:16:59;;;;;;;7.50;4.10;;;;;;;;;;10375212;23;20042;-85
2022/11/08 12:21:08;;;;;;;10.30;3.90;;;;;;;;;;10374510;23;20021;-88
2022/11/08 12:25:18;;;;;;;8.63;3.63;;;;;;;;;;10353304;23;20012;-86
2022/11/08 12:29:31;;;;;;;7.78;3.80;;;;;;;;;;10372741;23;20015;-87
2022/11/08 12:33:49;;;;;;;9.82;4.00;;;;;;;;;;10332219;23;20353;-87
2022/11/08 12:38:06;;;;;;;6.85;3.33;;;;;;;;;;10334464;23;20028;-89
2022/11/08 12:42:33;;;;;;;9.13;3.40;;;;;;;;;;10309290;23;20032;-88
2022/11/08 12:46:47;;;;;;;6.95;3.80;;;;;;;;;;10307799;23;20056;-89
2022/11/08 12:51:01;;;;;;;7.65;3.70;;;;;;;;;;10307933;23;20411;-88
2022/11/08 12:55:09;;;;;;;7.97;3.90;;;;;;;;;;10309535;23;20502;-85
2022/11/08 12:59:20;;;;;;;7.70;3.72;;;;;;;;;;10350898;23;20031;-86
2022/11/08 13:03:44;;;;;;;8.32;3.83;;;;;;;;;;10310859;23;20035;-86
2022/11/08 13:07:58;;;;;;;7.20;3.50;;;;;;;;;;10310276;23;20027;-87
2022/11/08 13:12:12;;;;;;;8.15;4.13;;;;;;;;;;10308123;23;20337;-87
2022/11/08 13:16:17;;;;;;;8.30;4.07;;;;;;;;;;10349718;23;20065;-86
2022/11/08 13:20:40;;;;;;;6.60;3.78;;;;;;;;;;10306359;23;20035;-88
2022/11/08 13:24:48;;;;;;;7.15;3.28;;;;;;;;;;10331683;23;20016;-87
2022/11/08 13:28:53;;;;;;;7.95;4.00;;;;;;;;;;10304970;23;20024;-88
2022/11/08 13:33:10;;;;;;;11.32;4.38;;;;;;;;;;10305938;23;20024;-87
2022/11/08 13:37:32;;;;;;;8.60;4.20;;;;;;;;;;10308475;23;20028;-86
2022/11/08 13:42:03;;;;;;;13.18;4.90;;;;;;;;;;10308715;23;20082;-86
2022/11/08 13:46:44;;;;;;;9.27;4.32;;;;;;;;;;10307771;23;20028;-86
2022/11/08 13:50:55;;;;;;;7.47;4.40;;;;;;;;;;10308281;23;20020;-86
2022/11/08 13:55:04;;;;;;;8.77;4.15;;;;;;;;;;10307517;23;20031;-87
2022/11/08 13:59:48;;;;;;;6.35;3.65;;;;;;;;;;10307694;23;20530;-86
2022/11/08 14:03:59;;;;;;;7.55;3.78;;;;;;;;;;10307207;23;20031;-88
2022/11/08 14:08:30;;;;;;;8.25;4.30;;;;;;;;;;10306962;23;20051;-89
2022/11/08 14:12:39;;;;;;;8.48;4.30;;;;;;;;;;10307747;23;20514;-87
2022/11/08 14:17:03;;;;;;;8.40;4.75;;;;;;;;;;10308028;23;20754;-87
2022/11/08 14:21:08;;;;;;;9.85;4.60;;;;;;;;;;10307478;23;20024;-88
2022/11/08 14:25:36;;;;;;;7.43;3.85;;;;;;;;;;10299319;22;20048;-86
2022/11/08 14:29:42;;;;;;;8.05;4.95;;;;;;;;;;10236537;23;20032;-86
2022/11/08 14:33:52;;;;;;;9.85;4.35;;;;;;;;;;10251682;23;20131;-87
2022/11/08 14:37:58;;;;;;;6.93;4.25;;;;;;;;;;10232479;23;20049;-87
2022/11/08 14:42:04;;;;;;;9.98;4.60;;;;;;;;;;10232576;23;20124;-87
2022/11/08 14:46:12;;;;;;;9.00;4.72;;;;;;;;;;10232008;23;20068;-86
2022/11/08 14:50:24;;;;;;;9.45;5.35;;;;;;;;;;10232177;23;20123;-86
2022/11/08 14:54:42;;;;;;;12.38;5.38;;;;;;;;;;10231488;23;20028;-86
2022/11/08 14:58:52;;;;;;;9.57;4.97;;;;;;;;;;10232266;23;20430;-88
2022/11/08 15:03:02;;;;;;;10.75;5.32;;;;;;;;;;10232119;23;20060;-86
2022/11/08 15:12:22;;;;;;;7.93;4.93;;;;;;;;;;10334817;23;20002;-86
2022/11/08 15:16:48;;;;;;;9.45;4.25;;;;;;;;;;10351160;23;20035;-86
2022/11/08 15:20:57;;;;;;;12.63;6.78;;;;;;;;;;10333824;23;20024;-87
2022/11/08 15:25:19;;;;;;;15.63;6.35;;;;;;;;;;10307048;23;20020;-86
2022/11/08 15:29:25;;;;;;;13.77;6.32;;;;;;;;;;10306506;23;20384;-86
2022/11/08 15:33:39;;;;;;;14.20;6.47;;;;;;;;;;10314964;23;20016;-86
2022/11/08 15:51:23;;;;;;;11.77;6.60;;;;;;;;;;10292091;22;20070;-86
2022/11/08 15:55:33;;;;;;;15.25;6.35;;;;;;;;;;10281467;23;20095;-86
2022/11/08 15:59:36;;;;;;;13.05;6.70;;;;;;;;;;10255653;23;20078;-86
2022/11/08 16:03:45;;;;;;;16.25;6.65;;;;;;;;;;10256309;23;20119;-85
2022/11/08 16:07:50;;;;;;;14.05;6.57;;;;;;;;;;10255470;23;20116;-87
2022/11/08 16:11:54;;;;;;;11.75;6.65;;;;;;;;;;10255355;23;20027;-86
2022/11/08 16:16:02;;;;;;;8.77;4.15;;;;;;;;;;10251270;23;20588;-89
2022/11/08 16:20:19;;;;;;;12.02;6.82;;;;;;;;;;10254389;23;20155;-88
2022/11/08 16:24:26;;;;;;;12.77;5.63;;;;;;;;;;10252833;23;20509;-85
2022/11/08 16:28:33;;;;;;;12.32;6.57;;;;;;;;;;10254312;23;20021;-88
2022/11/08 16:32:39;;;;;;;16.13;9.55;;;;;;;;;;10254055;23;20075;-86
2022/11/08 16:36:45;;;;;;;20.77;10.68;;;;;;;;;;10255753;23;20029;-86
2022/11/08 16:40:54;;;;;;;15.18;9.15;;;;;;;;;;10255928;23;20717;-86
2022/11/08 16:44:57;;;;;;;18.88;9.70;;;;;;;;;;10254652;23;20528;-85
2022/11/08 16:49:02;;;;;;;19.35;8.85;;;;;;;;;;10278968;23;20031;-86
2022/11/08 16:53:33;;;;;;;15.20;7.70;;;;;;;;;;10300759;23;20078;-87
2022/11/08 16:57:37;;;;;;;18.02;8.18;;;;;;;;;;10330489;23;20558;-89
2022/11/08 17:01:43;;;;;;;18.25;9.57;;;;;;;;;;10331276;23;20432;-87
2022/11/08 17:05:49;;;;;;;27.23;13.52;;;;;;;;;;10304304;23;20031;-85
2022/11/08 17:09:52;;;;;;;21.42;10.68;;;;;;;;;;10303408;23;20360;-87
2022/11/08 17:13:58;;;;;;;22.77;9.77;;;;;;;;;;10330404;23;20341;-87
2022/11/08 17:18:03;;;;;;;13.00;6.50;;;;;;;;;;10302502;23;20031;-86
2022/11/08 17:22:06;;;;;;;18.25;9.95;;;;;;;;;;10302378;23;20024;-86
2022/11/08 17:26:11;;;;;;;15.30;8.95;;;;;;;;;;10347232;23;20031;-85
2022/11/08 17:30:20;;;;;;;17.65;8.98;;;;;;;;;;10329374;23;20016;-86
2022/11/08 17:34:28;;;;;;;17.65;8.90;;;;;;;;;;10302864;23;20519;-85
2022/11/08 17:38:31;;;;;;;18.63;9.25;;;;;;;;;;10303622;23;20024;-86
2022/11/08 17:42:39;;;;;;;22.42;11.55;;;;;;;;;;10330769;23;20028;-86
2022/11/08 17:46:49;;;;;;;32.75;20.88;;;;;;;;;;10330915;23;20737;-85
2022/11/08 17:50:53;;;;;;;35.10;22.60;;;;;;;;;;10304811;23;20024;-87
2022/11/08 17:54:56;;;;;;;42.20;25.20;;;;;;;;;;10301225;23;20105;-86
2022/11/08 17:59:00;;;;;;;47.45;27.70;;;;;;;;;;10309614;23;20031;-86
2022/11/08 18:03:08;;;;;;;45.00;25.55;;;;;;;;;;10330343;23;20334;-85
2022/11/08 18:07:12;;;;;;;54.80;30.35;;;;;;;;;;10346130;23;20078;-85
2022/11/08 18:11:15;;;;;;;73.93;37.72;;;;;;;;;;10302979;23;20558;-85
2022/11/08 18:15:22;;;;;;;62.85;35.35;;;;;;;;;;10304401;23;20028;-87
2022/11/08 18:19:31;;;;;;;48.72;28.02;;;;;;;;;;10305334;23;20028;-86
2022/11/08 18:23:35;;;;;;;51.67;29.42;;;;;;;;;;10307160;23;20032;-87
2022/11/08 18:27:40;;;;;;;34.72;18.75;;;;;;;;;;10317908;23;20657;-88
2022/11/08 18:45:43;;;;;;;38.78;20.00;;;;;;;;;;10340133;22;20356;-85
2022/11/08 18:49:47;;;;;;;39.88;22.25;;;;;;;;;;10328581;23;20095;-84
2022/11/08 18:53:51;;;;;;;39.28;20.58;;;;;;;;;;10334404;23;20505;-85
2022/11/08 18:57:55;;;;;;;28.88;15.57;;;;;;;;;;10340110;23;20122;-86
2022/11/08 19:01:59;;;;;;;35.25;16.58;;;;;;;;;;10336842;23;20016;-84
2022/11/08 19:06:04;;;;;;;63.85;27.67;;;;;;;;;;10310204;23;20016;-84
2022/11/08 19:10:11;;;;;;;54.95;28.13;;;;;;;;;;10311021;23;20510;-84
2022/11/08 19:14:14;;;;;;;44.85;23.98;;;;;;;;;;10338624;23;20216;-85
2022/11/08 19:22:54;;;;;;;54.50;27.50;;;;;;;;;;10338703;23;20020;-84
2022/11/08 19:27:00;;;;;;;66.65;32.25;;;;;;;;;;10336615;23;20471;-85
2022/11/08 19:31:08;;;;;;;70.60;34.45;;;;;;;;;;10311247;23;20024;-89
2022/11/08 19:35:17;;;;;;;63.35;31.35;;;;;;;;;;10311448;23;20028;-85
2022/11/08 19:39:23;;;;;;;60.15;28.55;;;;;;;;;;10311571;23;20024;-85
2022/11/08 19:43:28;;;;;;;72.25;39.70;;;;;;;;;;10311676;23;20448;-84
2022/11/08 19:47:32;;;;;;;50.88;29.20;;;;;;;;;;10311041;23;20024;-87
2022/11/08 19:51:39;;;;;;;61.22;28.92;;;;;;;;;;10311626;23;20028;-84
2022/11/08 19:55:42;;;;;;;45.83;22.48;;;;;;;;;;10309861;23;20024;-86
2022/11/08 19:59:45;;;;;;;48.35;24.88;;;;;;;;;;10338110;23;20031;-85
2022/11/08 20:03:53;;;;;;;46.05;22.15;;;;;;;;;;10337581;23;20020;-86
2022/11/08 20:08:04;;;;;;;60.78;26.20;;;;;;;;;;10310525;23;20424;-85
2022/11/08 20:12:10;;;;;;;47.60;23.70;;;;;;;;;;10310966;23;20043;-84
2022/11/08 20:16:20;;;;;;;40.10;15.98;;;;;;;;;;10309846;23;20028;-83
2022/11/08 20:20:24;;;;;;;35.58;15.63;;;;;;;;;;10310880;23;20023;-85
2022/11/08 20:24:30;;;;;;;44.13;15.95;;;;;;;;;;10334238;23;20101;-83
2022/11/08 20:28:37;;;;;;;39.78;16.10;;;;;;;;;;10310939;23;20027;-84
2022/11/08 20:32:42;;;;;;;36.92;16.40;;;;;;;;;;10311627;23;20388;-84
2022/11/08 20:36:46;;;;;;;37.50;15.55;;;;;;;;;;10311413;23;20028;-83
2022/11/08 20:40:53;;;;;;;42.85;16.70;;;;;;;;;;10311149;23;20024;-84
2022/11/08 20:44:56;;;;;;;47.97;18.50;;;;;;;;;;10351821;23;20019;-87
2022/11/08 20:48:59;;;;;;;47.25;19.33;;;;;;;;;;10337152;23;20591;-83
2022/11/08 20:53:05;;;;;;;46.10;18.52;;;;;;;;;;10337444;23;20070;-83
2022/11/08 20:57:11;;;;;;;49.40;17.90;;;;;;;;;;10310865;23;20502;-83
2022/11/08 21:01:21;;;;;;;48.05;18.35;;;;;;;;;;10310656;23;20028;-83
2022/11/08 21:05:26;;;;;;;59.75;20.20;;;;;;;;;;10310426;23;20027;-83
2022/11/08 21:09:30;;;;;;;49.65;18.40;;;;;;;;;;10310724;23;20325;-83
2022/11/08 21:13:38;;;;;;;53.45;22.13;;;;;;;;;;10340475;23;20024;-83
2022/11/08 21:17:44;;;;;;;42.58;16.13;;;;;;;;;;10309767;23;20482;-83
2022/11/08 21:21:49;;;;;;;34.58;16.67;;;;;;;;;;10310743;23;20448;-84
2022/11/08 21:25:56;;;;;;;52.78;21.25;;;;;;;;;;10310465;23;20024;-84
2022/11/08 21:30:06;;;;;;;55.35;19.55;;;;;;;;;;10310574;23;20484;-84
2022/11/08 21:34:12;;;;;;;45.55;19.17;;;;;;;;;;10310526;23;20024;-84
2022/11/08 21:38:15;;;;;;;44.65;20.85;;;;;;;;;;10310005;23;20049;-83
2022/11/08 21:42:21;;;;;;;46.10;22.25;;;;;;;;;;10310463;23;20629;-83
2022/11/08 21:46:27;;;;;;;52.22;24.75;;;;;;;;;;10336435;23;20103;-83
2022/11/08 21:50:35;;;;;;;52.47;24.17;;;;;;;;;;10336639;23;20024;-83
2022/11/08 21:54:39;;;;;;;58.58;27.88;;;;;;;;;;10354191;23;20127;-83
2022/11/08 21:58:45;;;;;;;45.45;22.00;;;;;;;;;;10313420;23;20031;-84
2022/11/08 22:02:52;;;;;;;47.83;19.30;;;;;;;;;;10314105;23;20340;-84
2022/11/08 22:06:55;;;;;;;44.00;20.08;;;;;;;;;;10313318;23;20325;-84
2022/11/08 22:11:00;;;;;;;51.55;20.52;;;;;;;;;;10312924;23;20020;-85
2022/11/08 22:15:05;;;;;;;38.88;17.73;;;;;;;;;;10313418;23;20158;-83
2022/11/08 22:19:12;;;;;;;46.70;19.98;;;;;;;;;;10313315;23;20079;-84
2022/11/08 22:23:17;;;;;;;45.28;19.63;;;;;;;;;;10313119;23;20524;-83
2022/11/08 22:27:22;;;;;;;41.10;16.20;;;;;;;;;;10312727;23;20103;-83
2022/11/08 22:31:28;;;;;;;38.75;16.17;;;;;;;;;;10312507;23;20024;-84
2022/11/08 22:35:34;;;;;;;38.40;15.68;;;;;;;;;;10313057;23;20024;-83
2022/11/08 22:39:38;;;;;;;39.97;16.40;;;;;;;;;;10356079;23;20027;-83
2022/11/08 22:43:40;;;;;;;40.80;17.13;;;;;;;;;;10312547;23;20465;-82
2022/11/08 22:47:44;;;;;;;40.08;15.75;;;;;;;;;;10312032;23;20435;-82
2022/11/08 22:51:48;;;;;;;43.53;16.73;;;;;;;;;;10313283;23;20102;-82
2022/11/08 22:55:52;;;;;;;40.53;16.85;;;;;;;;;;10312541;23;20530;-83
2022/11/08 22:59:55;;;;;;;49.95;18.67;;;;;;;;;;10312658;23;20024;-87
2022/11/08 23:03:59;;;;;;;43.92;16.90;;;;;;;;;;10312626;23;20368;-83
2022/11/08 23:08:02;;;;;;;45.95;17.50;;;;;;;;;;10338814;23;20020;-83
2022/11/08 23:16:46;;;;;;;45.47;17.77;;;;;;;;;;10209226;23;20021;-82
2022/11/08 23:25:11;;;;;;;64.90;20.98;;;;;;;;;;10388390;23;20051;-85
2022/11/08 23:33:33;;;;;;;73.13;24.05;;;;;;;;;;10344935;23;20472;-82
2022/11/08 23:37:37;;;;;;;67.25;23.05;;;;;;;;;;10344107;23;20063;-82
2022/11/08 23:46:07;;;;;;;69.35;22.05;;;;;;;;;;10312763;23;20087;-82
2022/11/08 23:50:12;;;;;;;90.80;24.70;;;;;;;;;;10312257;23;20020;-82
2022/11/08 23:54:16;;;;;;;71.05;22.20;;;;;;;;;;10356023;23;20020;-83
2022/11/08 23:58:21;;;;;;;90.07;26.27;;;;;;;;;;10338399;23;20094;-83
